Terminal Aerodrome Forecast
Issued by NWS Buffalo, NY

Current Version | Previous Version | Text Only | Print | Product List | Glossary On
Versions: 1 2 3 4 5 6 7 8 9 10 11 12 13 14 15 16 17 18 19 20 21 22 23 24 25 26 27 28
000
FTUS41 KBUF 231134
TAFBUF
TAF
KBUF 231134Z 2312/2412 07010KT 2SM BR OVC003
     FM231300 08010KT 4SM BR VCSH OVC007
     FM231400 09011G18KT P6SM VCSH OVC015
     FM231700 08011G19KT 6SM -RA OVC015
     FM240300 06012G18KT 2SM -SNPLRA OVC007
     FM240500 06012G18KT 1/2SM SN OVC007
     FM240700 06011G18KT 2SM -SN OVC007=

USA.gov is the U.S. government's official web portal to all federal, state and local government web resources and services.